Time;durP1;ratioP1;P1;durP2;ratioP2;P2;SDS_P1;SDS_P2;PMS_P1;PMS_P2;Temp;Humidity;BMP_temperature;BMP_pressure;BME280_temperature;BME280_humidity;BME280_pressure;Samples;Min_cycle;Max_cycle;Signal;HPM_P1;HPM_P2
2022/04/16 00:02:11;;;;;;;0.30;0.30;;;;;;;10.46;61.62;94587.53;5030928;28;20227;-73
2022/04/16 00:04:41;;;;;;;1.40;0.95;;;;;;;10.43;61.48;94599.81;5030695;28;20251;-73
2022/04/16 00:07:10;;;;;;;2.72;1.50;;;;;;;10.40;60.44;94596.97;5030822;28;20694;-74
2022/04/16 00:09:37;;;;;;;2.05;1.35;;;;;;;10.40;59.97;94595.03;5030605;28;20204;-75
2022/04/16 00:12:04;;;;;;;1.58;1.17;;;;;;;10.37;59.89;94593.00;5030835;28;20204;-75
2022/04/16 00:14:32;;;;;;;0.80;0.60;;;;;;;10.46;60.08;94582.91;5030556;28;20215;-74
2022/04/16 00:16:59;;;;;;;1.65;1.48;;;;;;;10.52;60.28;94578.88;5030680;28;20239;-75
2022/04/16 00:19:26;;;;;;;0.40;0.40;;;;;;;10.40;60.35;94573.38;5030084;28;20984;-73
2022/04/16 00:21:53;;;;;;;0.77;0.77;;;;;;;10.04;61.70;94575.78;5030617;28;20200;-73
2022/04/16 00:24:21;;;;;;;1.15;0.52;;;;;;;9.93;61.73;94586.97;5033420;28;20293;-73
2022/04/16 00:26:50;;;;;;;0.93;0.80;;;;;;;10.13;60.91;94581.94;5030836;28;20200;-73
2022/04/16 00:29:17;;;;;;;0.68;0.68;;;;;;;9.94;61.39;94585.84;5030742;28;20227;-74
2022/04/16 00:31:45;;;;;;;0.80;0.60;;;;;;;10.05;61.66;94580.88;5030331;28;20212;-74
2022/04/16 00:34:14;;;;;;;0.22;0.22;;;;;;;10.25;59.92;94582.09;5017463;28;20220;-74
2022/04/16 00:36:42;;;;;;;1.08;1.00;;;;;;;10.07;61.24;94580.53;5030788;28;20254;-74
2022/04/16 00:39:09;;;;;;;0.30;0.30;;;;;;;9.98;61.36;94583.25;5030630;28;20204;-74
2022/04/16 00:41:37;;;;;;;0.77;0.60;;;;;;;9.94;61.35;94583.13;5017034;28;20216;-74
2022/04/16 00:44:04;;;;;;;0.30;0.30;;;;;;;9.89;61.93;94591.44;5034029;28;20718;-74
2022/04/16 00:46:31;;;;;;;0.93;0.88;;;;;;;9.83;62.82;94587.31;5033924;28;20255;-74
2022/04/16 00:48:58;;;;;;;0.40;0.40;;;;;;;9.80;64.29;94587.97;5034518;28;20203;-75
2022/04/16 00:51:25;;;;;;;0.40;0.40;;;;;;;9.84;65.08;94583.47;5033637;28;20215;-74
2022/04/16 00:53:53;;;;;;;0.50;0.50;;;;;;;9.79;65.08;94583.66;5034165;28;20589;-74
2022/04/16 00:56:19;;;;;;;4.95;1.13;;;;;;;9.86;65.53;94570.41;5033934;28;20693;-74
2022/04/16 00:58:48;;;;;;;1.25;1.08;;;;;;;9.83;64.81;94575.72;5033947;28;20274;-74
2022/04/16 01:01:15;;;;;;;0.60;0.60;;;;;;;9.73;64.99;94576.84;5033738;28;20255;-74
2022/04/16 01:03:43;;;;;;;0.60;0.60;;;;;;;9.63;64.52;94577.97;5034199;28;20204;-74
2022/04/16 01:06:14;;;;;;;0.80;0.80;;;;;;;9.65;65.79;94569.56;5033860;28;20670;-74
2022/04/16 01:08:42;;;;;;;1.30;0.85;;;;;;;9.70;65.25;94563.97;5034361;28;20556;-74
2022/04/16 01:11:09;;;;;;;2.63;0.40;;;;;;;9.59;65.40;94570.81;5033116;28;20232;-74
2022/04/16 01:13:37;;;;;;;0.85;0.85;;;;;;;9.42;65.26;94571.69;5044189;28;20230;-74
2022/04/16 01:16:06;;;;;;;1.10;1.00;;;;;;;9.36;66.14;94566.75;5049734;28;20204;-74
2022/04/16 01:18:33;;;;;;;1.58;0.98;;;;;;;9.32;66.52;94565.78;5033647;28;20219;-74
2022/04/16 01:21:00;;;;;;;1.25;1.15;;;;;;;9.22;66.95;94567.72;5033480;28;20262;-74
2022/04/16 01:23:30;;;;;;;4.85;1.65;;;;;;;9.08;66.91;94571.72;5034804;28;20302;-74
2022/04/16 01:25:57;;;;;;;1.33;1.23;;;;;;;8.86;68.12;94580.78;5030513;28;20236;-73
2022/04/16 01:28:24;;;;;;;0.82;0.82;;;;;;;8.93;68.23;94581.09;5025382;28;20204;-73
2022/04/16 01:30:51;;;;;;;1.17;1.08;;;;;;;9.00;68.02;94580.63;5032715;28;20208;-73
2022/04/16 01:33:18;;;;;;;0.77;0.77;;;;;;;9.12;67.51;94584.28;5033188;28;20714;-75
2022/04/16 01:35:45;;;;;;;8.48;1.33;;;;;;;9.16;66.82;94590.63;5033208;28;20710;-75
2022/04/16 01:38:12;;;;;;;2.88;1.25;;;;;;;9.16;67.05;94585.22;5033370;28;20208;-75
2022/04/16 01:40:40;;;;;;;0.60;0.60;;;;;;;9.22;67.21;94588.56;5033346;28;20219;-74
2022/04/16 01:43:07;;;;;;;2.75;0.55;;;;;;;9.17;66.40;94586.81;5032632;28;20319;-74
2022/04/16 01:45:34;;;;;;;0.40;0.40;;;;;;;9.14;66.74;94592.88;5020029;28;20228;-73
2022/04/16 01:48:01;;;;;;;0.50;0.50;;;;;;;8.94;67.02;94582.69;5032946;28;20235;-74
2022/04/16 01:50:28;;;;;;;0.57;0.57;;;;;;;8.97;66.50;94586.66;5032857;28;20524;-73
2022/04/16 01:52:55;;;;;;;0.73;0.73;;;;;;;8.92;66.47;94590.31;5032122;28;20668;-73
2022/04/16 01:55:22;;;;;;;0.45;0.45;;;;;;;8.90;66.53;94587.13;5040140;28;20222;-73
2022/04/16 01:57:51;;;;;;;0.80;0.77;;;;;;;8.81;66.76;94579.03;5038719;28;20536;-73
2022/04/16 02:00:19;;;;;;;1.15;0.93;;;;;;;8.81;66.25;94578.25;5033216;28;20232;-74
2022/04/16 02:02:46;;;;;;;0.82;0.82;;;;;;;8.64;67.63;94572.81;5032540;28;20207;-73
2022/04/16 02:05:13;;;;;;;0.90;0.70;;;;;;;8.72;67.61;94580.16;5032604;28;20587;-74
2022/04/16 02:07:41;;;;;;;4.43;1.00;;;;;;;8.84;67.81;94577.59;5032652;28;20208;-74
2022/04/16 02:10:09;;;;;;;1.50;1.40;;;;;;;8.83;66.63;94576.03;5032133;28;20210;-74
2022/04/16 02:12:37;;;;;;;2.92;1.70;;;;;;;8.89;65.85;94580.13;5046166;28;20262;-74
2022/04/16 02:15:07;;;;;;;1.48;1.00;;;;;;;8.87;65.96;94580.47;5032767;28;20258;-74
2022/04/16 02:17:34;;;;;;;1.33;1.00;;;;;;;8.83;66.17;94576.03;5035047;28;20262;-74
2022/04/16 02:20:01;;;;;;;0.40;0.40;;;;;;;8.77;66.15;94571.88;5042303;28;20200;-74
2022/04/16 02:22:38;;;;;;;0.38;0.38;;;;;;;8.82;66.36;94571.72;5035156;28;20216;-73
2022/04/16 02:25:05;;;;;;;0.77;0.77;;;;;;;8.85;66.58;94579.19;5040843;28;20616;-75
2022/04/16 02:27:35;;;;;;;1.17;1.08;;;;;;;8.85;66.20;94579.19;5032250;28;20207;-74
2022/04/16 02:30:02;;;;;;;0.40;0.40;;;;;;;8.76;66.71;94576.47;5032632;28;20230;-73
2022/04/16 02:32:30;;;;;;;0.70;0.70;;;;;;;8.69;67.27;94578.06;5031657;28;20204;-74
2022/04/16 02:34:57;;;;;;;0.60;0.60;;;;;;;8.73;67.29;94577.13;5032319;28;20319;-74
2022/04/16 02:37:24;;;;;;;0.43;0.43;;;;;;;8.68;68.38;94573.78;5032244;28;20200;-74
2022/04/16 02:39:51;;;;;;;1.10;1.08;;;;;;;8.72;68.97;94574.75;5032050;28;20208;-73
2022/04/16 02:42:19;;;;;;;0.40;0.40;;;;;;;8.72;67.50;94580.16;5031953;28;20232;-74
2022/04/16 02:47:32;;;;;;;1.13;1.02;;;;;;;8.60;67.79;94577.28;5021151;28;20203;-73
2022/04/16 02:49:58;;;;;;;0.22;0.22;;;;;;;8.58;68.17;94568.69;5031881;28;20269;-73
2022/04/16 02:52:26;;;;;;;0.52;0.52;;;;;;;8.59;67.72;94570.28;5041111;28;20207;-73
2022/04/16 02:54:53;;;;;;;0.65;0.65;;;;;;;8.61;67.89;94578.88;5035133;28;20232;-74
2022/04/16 02:57:20;;;;;;;0.88;0.88;;;;;;;8.64;67.30;94572.81;5031493;28;20732;-73
2022/04/16 02:59:47;;;;;;;0.73;0.73;;;;;;;8.61;66.87;94578.88;5031901;28;20735;-73
2022/04/16 03:02:15;;;;;;;1.08;0.85;;;;;;;8.54;67.10;94580.13;5042320;28;20231;-73
2022/04/16 03:04:43;;;;;;;1.48;1.02;;;;;;;8.55;66.61;94581.72;5032959;28;20742;-73
2022/04/16 03:07:10;;;;;;;0.63;0.63;;;;;;;8.47;66.39;94577.06;5031880;28;20291;-73
2022/04/16 03:09:37;;;;;;;0.63;0.60;;;;;;;8.59;65.66;94586.50;5044981;28;20577;-73
2022/04/16 03:12:05;;;;;;;0.88;0.68;;;;;;;8.51;66.10;94586.16;5031668;28;20287;-73
2022/04/16 03:17:35;;;;;;;3.47;1.13;;;;;;;8.25;67.78;94579.88;5031343;28;20199;-74
2022/04/16 03:20:06;;;;;;;0.75;0.75;;;;;;;8.25;67.60;94590.66;5031501;28;20266;-73
2022/04/16 03:22:34;;;;;;;0.52;0.52;;;;;;;8.29;67.64;94585.44;5035361;28;20575;-74
2022/04/16 03:25:03;;;;;;;0.82;0.80;;;;;;;8.37;67.90;94581.97;5039894;28;20235;-73
2022/04/16 03:27:30;;;;;;;0.60;0.60;;;;;;;8.38;67.90;94589.78;5031483;28;20204;-73
2022/04/16 03:29:56;;;;;;;0.95;0.95;;;;;;;8.38;68.68;94587.06;5031272;28;20312;-74
2022/04/16 03:32:23;;;;;;;0.95;0.88;;;;;;;8.35;68.50;94590.41;5031188;28;20667;-73
2022/04/16 03:34:50;;;;;;;1.38;1.27;;;;;;;8.36;68.62;94583.88;5031126;28;20231;-73
2022/04/16 03:37:19;;;;;;;1.95;1.20;;;;;;;8.39;68.21;94593.28;5031346;28;20197;-73
2022/04/16 03:39:46;;;;;;;0.70;0.70;;;;;;;8.41;68.08;94602.66;5030756;28;20208;-73
2022/04/16 03:42:13;;;;;;;0.30;0.30;;;;;;;8.36;68.06;94602.78;5030817;28;20642;-73
2022/04/16 03:44:40;;;;;;;1.00;0.98;;;;;;;8.37;67.22;94611.69;5031016;28;20238;-73
2022/04/16 03:47:07;;;;;;;2.72;1.02;;;;;;;8.42;66.66;94609.63;5030617;28;20207;-73
2022/04/16 03:49:33;;;;;;;0.57;0.57;;;;;;;8.52;66.50;94609.34;5030605;28;20247;-73
2022/04/16 03:52:02;;;;;;;0.63;0.63;;;;;;;8.59;66.17;94608.09;5030890;28;20969;-74
2022/04/16 04:00:03;;;;;;;1.08;0.50;;;;;;;9.32;65.46;94625.25;5030638;28;20276;-74
2022/04/16 04:02:35;;;;;;;1.42;1.13;;;;;;;9.75;64.02;94623.28;5031038;28;20224;-74
2022/04/16 04:05:02;;;;;;;0.77;0.77;;;;;;;10.30;62.31;94634.13;5017488;28;20706;-74
2022/04/16 04:07:30;;;;;;;0.43;0.43;;;;;;;10.71;60.26;94631.84;5030699;28;20295;-74
2022/04/16 04:09:59;;;;;;;0.88;0.63;;;;;;;10.95;58.62;94626.56;5043983;28;20204;-74
2022/04/16 04:12:26;;;;;;;3.35;1.40;;;;;;;11.50;57.85;94630.94;5030344;28;20215;-74
2022/04/16 04:14:53;;;;;;;1.00;0.90;;;;;;;12.28;56.52;94622.81;5038523;28;20691;-75
2022/04/16 04:17:20;;;;;;;1.27;1.15;;;;;;;13.01;53.92;94618.13;5036615;28;20266;-75
2022/04/16 04:19:48;;;;;;;0.80;0.80;;;;;;;13.12;53.61;94618.44;5032594;28;20212;-75
2022/04/16 04:22:16;;;;;;;1.75;1.35;;;;;;;14.05;51.35;94609.03;5034236;28;20208;-75
2022/04/16 04:24:44;;;;;;;0.77;0.50;;;;;;;14.68;49.62;94605.53;5032192;28;20211;-75
2022/04/16 04:27:12;;;;;;;1.98;1.10;;;;;;;14.87;48.35;94614.59;5032353;28;20251;-75
2022/04/16 04:29:39;;;;;;;4.55;2.92;;;;;;;14.19;47.40;94614.84;5032747;28;20205;-75
2022/04/16 04:32:07;;;;;;;3.78;2.95;;;;;;;14.38;48.06;94616.06;5034377;28;20212;-73
2022/04/16 04:34:34;;;;;;;2.55;1.20;;;;;;;14.50;48.04;94616.00;5030930;28;20211;-74
2022/04/16 04:37:01;;;;;;;1.30;0.85;;;;;;;15.13;46.71;94599.56;5033451;28;20511;-75
2022/04/16 04:39:28;;;;;;;1.73;1.23;;;;;;;15.48;46.13;94610.41;5031890;28;20224;-77
2022/04/16 04:41:55;;;;;;;7.63;3.58;;;;;;;16.25;44.87;94605.72;5030245;28;20576;-74
2022/04/16 04:44:23;;;;;;;1.52;1.23;;;;;;;16.33;44.88;94623.00;5033959;28;20200;-75
2022/04/16 04:46:50;;;;;;;1.88;1.45;;;;;;;16.76;43.92;94619.09;5033652;28;20228;-76
2022/04/16 04:49:17;;;;;;;2.25;1.48;;;;;;;17.25;42.90;94618.22;5032896;28;20671;-76
2022/04/16 04:51:44;;;;;;;1.55;1.33;;;;;;;17.89;41.79;94619.09;5030379;28;20683;-76
2022/04/16 04:54:11;;;;;;;10.75;4.70;;;;;;;17.67;42.02;94621.56;5033909;28;20205;-76
2022/04/16 04:56:38;;;;;;;7.55;4.18;;;;;;;17.42;42.21;94612.22;5033640;28;20200;-76
2022/04/16 04:59:05;;;;;;;5.97;3.90;;;;;;;17.97;41.64;94618.00;5033454;28;20197;-75
2022/04/16 05:01:33;;;;;;;9.52;4.25;;;;;;;18.39;40.96;94610.22;5032672;28;20249;-75
2022/04/16 05:04:00;;;;;;;7.03;4.65;;;;;;;18.38;40.79;94619.63;5031078;28;20575;-74
2022/04/16 05:06:27;;;;;;;7.45;4.30;;;;;;;17.77;41.99;94620.91;5031975;28;20232;-75
2022/04/16 05:08:54;;;;;;;8.75;4.25;;;;;;;16.75;44.41;94613.97;5032863;28;20267;-77
2022/04/16 05:11:21;;;;;;;6.68;4.50;;;;;;;16.53;44.31;94621.03;5033618;28;20216;-75
2022/04/16 05:13:47;;;;;;;7.53;4.68;;;;;;;16.34;44.90;94625.38;5033239;28;20197;-74
2022/04/16 05:16:15;;;;;;;7.55;4.82;;;;;;;17.20;44.23;94615.84;5033467;28;20207;-76
2022/04/16 05:18:43;;;;;;;6.95;4.45;;;;;;;18.26;42.38;94608.91;5033619;28;20627;-76
2022/04/16 05:21:10;;;;;;;7.40;4.50;;;;;;;18.79;40.41;94606.69;5032204;28;20235;-76
2022/04/16 05:23:39;;;;;;;10.23;4.88;;;;;;;19.12;40.29;94603.00;5033434;28;20223;-73
2022/04/16 05:26:08;;;;;;;11.88;5.63;;;;;;;20.07;38.52;94590.13;5033321;28;20865;-74
2022/04/16 05:28:35;;;;;;;9.40;4.95;;;;;;;20.78;36.74;94596.53;5031971;28;20326;-74
2022/04/16 05:31:03;;;;;;;8.25;5.13;;;;;;;21.07;37.57;94583.53;5032722;28;20224;-76
2022/04/16 05:36:15;;;;;;;7.47;4.72;;;;;;;21.69;34.87;94577.50;5022524;28;20203;-75
2022/04/16 05:38:42;;;;;;;5.90;4.38;;;;;;;21.23;35.58;94589.44;5033010;28;20258;-75
2022/04/16 05:41:09;;;;;;;7.13;4.78;;;;;;;20.75;37.71;94591.03;5033089;28;20204;-75
2022/04/16 05:43:36;;;;;;;11.50;6.30;;;;;;;21.76;36.07;94582.97;5033040;28;20240;-75
2022/04/16 05:46:03;;;;;;;11.38;5.68;;;;;;;21.68;34.63;94586.97;5033271;28;20232;-75
2022/04/16 05:48:30;;;;;;;8.07;5.10;;;;;;;22.81;32.69;94579.28;5027985;28;20680;-75
2022/04/16 05:50:57;;;;;;;10.00;4.95;;;;;;;21.97;34.00;94582.13;5032538;28;20204;-75
2022/04/16 05:53:26;;;;;;;9.70;5.07;;;;;;;20.90;35.40;94587.09;5032662;28;20254;-75
2022/04/16 05:55:53;;;;;;;9.07;5.13;;;;;;;19.12;37.34;94586.53;5032696;28;20207;-75
2022/04/16 05:58:20;;;;;;;8.88;4.72;;;;;;;17.89;39.96;94595.22;5032796;28;20286;-74
2022/04/16 06:00:48;;;;;;;9.70;5.03;;;;;;;19.27;38.25;94586.63;5029527;28;20216;-76
2022/04/16 06:03:15;;;;;;;7.20;4.78;;;;;;;19.99;35.55;94580.25;5031901;28;20315;-74
2022/04/16 06:05:42;;;;;;;9.73;4.68;;;;;;;21.41;33.93;94580.34;5031307;28;20650;-76
2022/04/16 06:08:09;;;;;;;10.25;4.80;;;;;;;22.69;32.47;94573.00;5036913;28;20196;-75
2022/04/16 06:10:37;;;;;;;9.52;4.80;;;;;;;22.79;31.61;94570.63;5039333;28;20254;-77
2022/04/16 06:13:05;;;;;;;6.63;4.22;;;;;;;23.21;29.61;94574.97;5031258;28;20200;-76
2022/04/16 06:15:33;;;;;;;6.13;3.10;;;;;;;20.93;30.21;94570.56;5032061;28;20204;-73
2022/04/16 06:18:00;;;;;;;5.75;3.50;;;;;;;21.71;30.37;94575.16;5032187;28;20287;-77
2022/04/16 06:20:26;;;;;;;6.78;2.72;;;;;;;22.09;29.22;94578.94;5032304;28;20209;-76
2022/04/16 06:22:53;;;;;;;2.88;2.08;;;;;;;19.19;31.48;94591.25;5031681;28;20196;-73
2022/04/16 06:25:20;;;;;;;8.52;2.95;;;;;;;18.32;33.26;94598.38;5031940;28;20211;-75
2022/04/16 06:27:48;;;;;;;3.63;2.40;;;;;;;19.83;31.79;94586.88;5032298;28;20204;-74
2022/04/16 06:30:15;;;;;;;3.85;2.75;;;;;;;20.62;32.07;94589.84;5031222;28;20209;-76
2022/04/16 06:32:42;;;;;;;4.53;2.88;;;;;;;20.84;30.28;94583.16;5032475;28;20224;-74
2022/04/16 06:35:12;;;;;;;3.90;2.85;;;;;;;20.21;31.66;94581.91;5031994;28;20890;-75
2022/04/16 06:37:40;;;;;;;5.07;2.83;;;;;;;19.60;32.06;94583.66;5032292;28;20218;-77
2022/04/16 06:40:09;;;;;;;5.32;2.53;;;;;;;20.42;30.69;94581.97;5031955;28;20288;-76
2022/04/16 06:42:36;;;;;;;4.15;2.67;;;;;;;20.85;30.61;94573.72;5031449;28;20808;-77
2022/04/16 06:45:06;;;;;;;5.15;2.40;;;;;;;20.30;31.29;94565.81;5031860;28;20615;-74
2022/04/16 06:47:33;;;;;;;4.25;2.40;;;;;;;19.68;33.19;94568.75;5032020;28;20228;-78
2022/04/16 06:50:00;;;;;;;5.88;2.92;;;;;;;19.11;32.78;94563.00;5031442;28;20201;-74
2022/04/16 06:52:27;;;;;;;5.13;3.40;;;;;;;18.60;33.66;94564.97;5031486;28;20208;-76
2022/04/16 06:54:53;;;;;;;5.05;2.58;;;;;;;18.78;34.38;94571.38;5031790;28;20231;-76
2022/04/16 06:57:20;;;;;;;6.82;3.28;;;;;;;19.47;33.21;94565.91;5031979;28;20231;-75
2022/04/16 06:59:47;;;;;;;2.92;2.25;;;;;;;20.07;32.41;94559.88;5031629;28;20223;-75
2022/04/16 07:02:15;;;;;;;6.80;3.97;;;;;;;20.40;31.57;94570.56;5031183;28;20208;-75
2022/04/16 07:04:42;;;;;;;7.90;3.53;;;;;;;19.52;32.97;94571.06;5031256;28;20349;-75
2022/04/16 07:07:09;;;;;;;4.90;3.05;;;;;;;20.16;33.23;94565.78;5030447;28;20246;-76
2022/04/16 07:09:38;;;;;;;7.18;3.28;;;;;;;20.01;32.84;94564.97;5030485;28;20671;-71
2022/04/16 07:12:07;;;;;;;4.95;2.97;;;;;;;18.93;34.11;94567.56;5030623;28;20204;-73
2022/04/16 07:14:34;;;;;;;4.53;3.20;;;;;;;18.75;34.74;94572.13;5031136;28;20727;-78
2022/04/16 07:17:03;;;;;;;4.68;3.15;;;;;;;19.48;33.82;94560.03;5031493;28;20212;-74
2022/04/16 07:19:32;;;;;;;5.90;2.78;;;;;;;19.31;33.03;94566.22;5030848;28;20205;-74
2022/04/16 07:21:59;;;;;;;5.57;3.08;;;;;;;19.55;32.89;94572.25;5030817;28;20334;-73
2022/04/16 07:24:27;;;;;;;5.25;3.45;;;;;;;19.57;33.74;94559.69;5040184;28;20211;-71
2022/04/16 07:26:54;;;;;;;4.70;2.80;;;;;;;18.83;34.00;94557.31;5037654;28;20228;-72
2022/04/16 07:29:21;;;;;;;5.10;2.72;;;;;;;19.37;34.25;94558.41;5031165;28;20231;-75
2022/04/16 07:31:48;;;;;;;8.50;3.60;;;;;;;19.34;33.50;94561.91;5030441;28;20227;-73
2022/04/16 07:34:15;;;;;;;4.38;2.63;;;;;;;19.03;34.82;94555.84;5018444;28;20235;-70
2022/04/16 07:36:44;;;;;;;2.83;1.60;;;;;;;18.17;36.21;94561.03;5030743;28;20266;-78
2022/04/16 07:39:12;;;;;;;6.63;3.42;;;;;;;18.02;36.74;94568.34;5018069;28;20211;-73
2022/04/16 07:41:39;;;;;;;5.43;3.58;;;;;;;18.08;37.05;94561.34;5030840;28;20687;-75
2022/04/16 07:44:06;;;;;;;5.22;3.15;;;;;;;18.06;36.62;94563.66;5030352;28;20719;-77
2022/04/16 07:46:35;;;;;;;6.70;3.75;;;;;;;18.78;37.38;94560.41;5030409;28;20243;-76
2022/04/16 07:49:02;;;;;;;6.15;3.47;;;;;;;18.95;35.57;94548.75;5030463;28;20651;-75
2022/04/16 07:51:29;;;;;;;3.65;2.53;;;;;;;17.99;37.34;94547.94;5031713;28;20737;-74
2022/04/16 07:53:58;;;;;;;4.95;3.10;;;;;;;18.19;36.68;94558.69;5042069;28;20635;-74
2022/04/16 07:56:28;;;;;;;8.30;3.35;;;;;;;18.05;37.77;94556.59;5030197;28;20235;-77
2022/04/16 07:58:55;;;;;;;5.00;3.38;;;;;;;18.04;36.45;94560.53;5030914;28;20224;-80
2022/04/16 08:01:22;;;;;;;7.32;4.20;;;;;;;17.91;37.38;94556.44;5030638;28;20730;-77
2022/04/16 08:03:49;;;;;;;6.72;3.53;;;;;;;18.59;36.69;94552.41;5030604;28;20227;-74
2022/04/16 08:06:16;;;;;;;5.80;2.58;;;;;;;17.94;37.40;94544.75;5029983;28;20619;-72
2022/04/16 08:08:43;;;;;;;6.88;3.08;;;;;;;17.57;38.27;94540.03;5030686;28;20208;-77
2022/04/16 08:11:11;;;;;;;5.80;3.20;;;;;;;17.52;38.22;94540.34;5029846;28;20287;-77
2022/04/16 08:13:38;;;;;;;4.93;2.97;;;;;;;18.00;37.66;94540.50;5030530;28;20204;-77
2022/04/16 08:16:05;;;;;;;5.90;3.60;;;;;;;18.03;37.19;94537.03;5029946;28;20208;-75
2022/04/16 08:18:32;;;;;;;8.70;4.40;;;;;;;18.02;37.64;94538.19;5030260;28;20219;-79
2022/04/16 08:20:59;;;;;;;6.10;3.75;;;;;;;18.48;37.16;94533.88;5023868;28;20212;-73
2022/04/16 08:23:26;;;;;;;5.43;2.92;;;;;;;17.90;37.39;94533.75;5029444;28;20197;-71
2022/04/16 08:25:53;;;;;;;4.70;2.30;;;;;;;17.89;37.89;94520.44;5029819;28;20292;-72
2022/04/16 08:28:21;;;;;;;5.72;2.60;;;;;;;17.72;38.38;94527.31;5028258;28;20204;-71
2022/04/16 08:30:49;;;;;;;7.47;3.50;;;;;;;17.29;39.02;94515.81;5026447;28;20189;-69
2022/04/16 08:33:17;;;;;;;7.07;2.72;;;;;;;17.46;39.09;94519.94;5027505;28;20552;-76
2022/04/16 08:35:44;;;;;;;4.95;3.15;;;;;;;17.67;38.77;94520.19;5028425;28;20667;-76
2022/04/16 08:38:12;;;;;;;7.32;3.47;;;;;;;17.95;37.59;94529.88;5029042;28;20204;-78
2022/04/16 08:40:39;;;;;;;6.78;2.95;;;;;;;17.69;37.72;94526.09;5029340;28;20192;-75
2022/04/16 08:43:08;;;;;;;5.82;3.13;;;;;;;17.70;38.06;94524.94;5028681;28;20243;-76
2022/04/16 08:45:38;;;;;;;7.10;2.90;;;;;;;18.05;37.34;94513.53;5021718;28;20218;-73
2022/04/16 08:48:06;;;;;;;8.07;3.45;;;;;;;18.58;36.13;94504.19;5029040;28;20236;-75
2022/04/16 08:50:34;;;;;;;5.00;2.88;;;;;;;18.67;36.76;94499.16;5021094;28;20295;-75
2022/04/16 08:53:01;;;;;;;7.85;2.92;;;;;;;19.06;36.34;94499.41;5020361;28;20217;-72
2022/04/16 08:55:29;;;;;;;5.63;3.08;;;;;;;18.47;36.97;94496.63;5019429;28;20205;-73
2022/04/16 08:57:56;;;;;;;4.43;2.75;;;;;;;19.13;35.28;94494.72;5028708;28;20693;-75
2022/04/16 09:00:24;;;;;;;4.57;3.30;;;;;;;19.31;35.21;94499.50;5029155;28;20204;-76
2022/04/16 09:02:54;;;;;;;4.28;2.78;;;;;;;19.04;35.02;94483.31;5028593;28;20216;-72
2022/04/16 09:05:21;;;;;;;3.80;2.58;;;;;;;19.97;34.75;94486.38;5032197;28;20292;-71
2022/04/16 09:07:50;;;;;;;6.40;3.08;;;;;;;20.00;34.11;94480.09;5032668;28;20266;-72
2022/04/16 09:10:17;;;;;;;4.53;2.72;;;;;;;20.41;34.10;94478.56;5032730;28;20227;-73
2022/04/16 09:12:45;;;;;;;3.58;2.72;;;;;;;20.50;33.30;94476.19;5031796;28;20204;-72
2022/04/16 09:15:14;;;;;;;4.80;3.00;;;;;;;20.16;32.67;94475.00;5031836;28;20563;-74
2022/04/16 09:17:42;;;;;;;3.10;2.33;;;;;;;20.85;32.50;94469.09;5037228;28;20208;-73
2022/04/16 09:20:14;;;;;;;3.72;2.53;;;;;;;21.06;31.55;94466.25;5039959;28;20208;-73
2022/04/16 09:22:48;;;;;;;5.25;2.90;;;;;;;20.30;32.04;94461.25;5026046;28;20204;-75
2022/04/16 09:25:17;;;;;;;5.50;2.92;;;;;;;20.40;33.04;94459.69;5037875;28;20270;-73
2022/04/16 09:27:46;;;;;;;7.05;2.90;;;;;;;20.89;33.82;94450.59;5039329;28;20231;-75
2022/04/16 09:30:13;;;;;;;4.70;2.53;;;;;;;20.32;32.45;94453.41;5035203;28;20204;-74
2022/04/16 09:32:44;;;;;;;6.28;2.80;;;;;;;20.36;32.26;94450.69;5030194;28;20222;-76
2022/04/16 09:35:30;;;;;;;3.35;2.60;;;;;;;20.99;32.91;94451.75;5031831;28;20291;-73
2022/04/16 09:37:59;;;;;;;5.40;2.50;;;;;;;20.37;32.16;94447.50;5028747;28;20209;-73
2022/04/16 09:40:30;;;;;;;4.25;2.63;;;;;;;20.45;31.33;94451.84;5031169;28;20263;-71
2022/04/16 09:42:59;;;;;;;4.63;2.90;;;;;;;20.32;32.30;94452.59;5023723;28;20318;-71
2022/04/16 09:45:26;;;;;;;5.88;2.72;;;;;;;20.58;31.91;94444.75;5033847;28;20196;-75
2022/04/16 09:47:53;;;;;;;4.35;2.85;;;;;;;20.23;32.16;94444.72;5031194;28;20695;-76
2022/04/16 09:50:23;;;;;;;4.82;2.88;;;;;;;20.52;31.61;94442.78;5031752;28;20723;-75
2022/04/16 09:52:53;;;;;;;3.30;2.33;;;;;;;21.12;32.24;94445.41;5031451;28;20570;-75
2022/04/16 09:55:22;;;;;;;5.60;2.83;;;;;;;21.59;31.01;94446.00;5025593;28;20215;-77
2022/04/16 09:57:57;;;;;;;6.03;3.08;;;;;;;22.27;29.62;94440.84;5032355;28;20918;-76
2022/04/16 10:00:24;;;;;;;4.38;2.80;;;;;;;22.15;30.15;94433.03;5031646;28;20196;-74
2022/04/16 10:02:52;;;;;;;4.70;3.00;;;;;;;22.28;30.28;94431.34;5032113;28;20200;-77
2022/04/16 10:05:21;;;;;;;3.55;2.88;;;;;;;22.88;29.67;94424.50;5032021;28;20650;-74
2022/04/16 10:07:48;;;;;;;4.53;3.17;;;;;;;23.29;29.07;94422.44;5032104;28;20232;-75
2022/04/16 10:10:25;;;;;;;7.78;3.20;;;;;;;23.10;28.78;94419.53;5031286;28;20204;-79
2022/04/16 10:13:08;;;;;;;4.05;2.92;;;;;;;22.72;29.47;94415.97;5032034;28;20619;-77
2022/04/16 10:15:47;;;;;;;4.38;3.10;;;;;;;21.89;31.04;94421.38;5031347;28;20559;-75
2022/04/16 10:18:15;;;;;;;4.72;3.00;;;;;;;21.57;30.76;94423.56;5020404;28;20274;-75
2022/04/16 10:20:51;;;;;;;5.95;3.25;;;;;;;22.44;29.49;94411.50;5032222;28;20200;-74
2022/04/16 10:23:28;;;;;;;5.82;3.03;;;;;;;22.89;28.91;94403.97;5032512;28;20196;-75
2022/04/16 10:26:05;;;;;;;6.55;3.17;;;;;;;22.30;29.58;94412.41;5032568;28;20200;-75
2022/04/16 10:28:41;;;;;;;5.22;3.10;;;;;;;21.95;30.37;94418.97;5031940;28;20231;-76
2022/04/16 10:31:20;;;;;;;4.97;2.65;;;;;;;21.58;31.02;94416.88;5018689;28;20217;-76
2022/04/16 10:34:07;;;;;;;5.88;3.00;;;;;;;21.69;30.50;94416.81;5032447;28;20279;-79
2022/04/16 10:36:37;;;;;;;4.63;3.17;;;;;;;21.55;30.74;94406.66;5031638;28;20227;-78
2022/04/16 10:39:15;;;;;;;6.80;3.08;;;;;;;21.95;30.35;94411.50;5032102;28;20200;-75
2022/04/16 10:41:55;;;;;;;4.80;3.22;;;;;;;22.98;29.58;94395.97;5018674;28;20201;-75
2022/04/16 10:44:22;;;;;;;4.80;2.97;;;;;;;22.65;28.91;94398.28;5031731;28;20678;-79
2022/04/16 10:46:50;;;;;;;5.40;3.15;;;;;;;22.42;29.35;94391.81;5031751;28;20212;-75
2022/04/16 10:49:18;;;;;;;4.25;3.03;;;;;;;22.95;29.84;94392.06;5031475;28;20215;-76
2022/04/16 10:51:46;;;;;;;5.22;3.08;;;;;;;23.59;28.05;94384.97;5031222;28;20208;-74
2022/04/16 10:54:15;;;;;;;8.18;3.25;;;;;;;22.88;29.63;94378.34;5031798;28;20242;-77
2022/04/16 10:56:53;;;;;;;5.60;3.25;;;;;;;21.86;30.16;94394.63;5031560;28;20208;-79
2022/04/16 10:59:35;;;;;;;6.15;3.30;;;;;;;21.52;30.68;94390.91;5031423;28;20192;-76
2022/04/16 11:02:02;;;;;;;5.45;3.10;;;;;;;21.85;31.24;94393.06;5019817;28;20754;-76
2022/04/16 11:04:29;;;;;;;8.75;3.30;;;;;;;22.45;30.08;94383.50;5033707;28;20200;-80
2022/04/16 11:06:58;;;;;;;5.20;3.13;;;;;;;22.90;29.51;94375.16;5042383;28;20551;-80
2022/04/16 11:09:26;;;;;;;5.68;3.55;;;;;;;22.60;29.28;94376.63;5031325;28;20208;-78
2022/04/16 11:11:54;;;;;;;4.47;2.97;;;;;;;23.48;28.57;94374.03;5030993;28;20208;-74
2022/04/16 11:14:21;;;;;;;5.40;3.28;;;;;;;23.02;29.16;94371.84;5031260;28;20213;-73
2022/04/16 11:16:48;;;;;;;4.22;2.97;;;;;;;22.76;29.90;94372.53;5031408;28;20208;-75
2022/04/16 11:19:16;;;;;;;4.60;2.95;;;;;;;22.14;30.17;94379.81;5031141;28;20211;-76
2022/04/16 11:21:44;;;;;;;4.20;3.10;;;;;;;21.97;30.63;94381.53;5031161;28;20208;-72
2022/04/16 11:24:12;;;;;;;3.92;2.90;;;;;;;22.28;30.33;94365.13;5033616;28;20205;-75
2022/04/16 11:34:57;;;;;;;4.68;3.20;;;;;;;22.78;30.07;94361.88;5030172;28;20207;-77
2022/04/16 11:37:24;;;;;;;7.38;3.47;;;;;;;22.76;29.79;94350.44;5029562;28;20204;-77
2022/04/16 11:40:00;;;;;;;5.90;3.50;;;;;;;23.55;29.80;94351.81;5029858;28;20204;-77
2022/04/16 11:42:27;;;;;;;4.75;3.67;;;;;;;22.99;29.74;94345.03;5017989;28;20322;-74
2022/04/16 11:44:57;;;;;;;5.22;3.10;;;;;;;22.75;30.39;94348.88;5030650;28;20212;-70
2022/04/16 11:47:25;;;;;;;7.90;3.63;;;;;;;22.44;30.27;94346.03;5030659;28;20228;-77
2022/04/16 11:49:54;;;;;;;7.70;3.72;;;;;;;23.14;30.65;94332.63;5030851;28;20266;-78
2022/04/16 11:52:24;;;;;;;4.65;3.15;;;;;;;23.29;30.41;94334.00;5030135;28;20219;-79
2022/04/16 11:55:00;;;;;;;6.20;3.10;;;;;;;23.22;30.79;94334.09;5030273;28;20300;-75
2022/04/16 11:57:27;;;;;;;4.97;3.08;;;;;;;22.83;30.73;94329.06;5030265;28;20216;-75
2022/04/16 11:59:59;;;;;;;4.07;2.72;;;;;;;22.11;31.54;94321.94;5030584;28;20200;-76
2022/04/16 12:02:33;;;;;;;4.47;2.85;;;;;;;21.51;31.91;94335.00;5030343;28;20212;-80
2022/04/16 12:05:12;;;;;;;5.03;2.88;;;;;;;21.33;32.34;94334.31;5029886;28;20204;-76